Decoded Metar for KPLD ( in ) (IATA:) | Meteo·Mobile Aviation Weather
aviador You're here:

KPLD Decoded Metar

in
Report Time2018-10-20 03:55:00
UTC Time2018-10-20 04:02:55
Flight Rules mvfr MVFR
Wind250° at 12 Gusting to 16 kt
W.Decomp.*RWY 27: 11.3 kt HW 4.1 kt LCW
W.Rank250° ranks 7
Current wind is above 250° avg. (9.2)
Visibility9999 m
Phenomena:N/A
Clouds:Overcast 011 Hf
Expected CloudBase > 400 ft AGL from Temp-Dew spread
Ceiling1,100 ft
Temp09°C
Dew Point08°C (94% RH)
AAT4.2°C
QNH1012 hPa
Raw Report
KPLD 200355Z AUTO 25012G16KT 10SM OVC011 09/08 A2989 RMK AO2=

Extra information for KPLD:More info

Social comments